createdAt,value
2019-03-23T00:02:06.447Z,4.60
2019-03-23T00:04:37.765Z,4.60
2019-03-23T00:07:08.013Z,4.50
2019-03-23T00:09:40.700Z,4.50
2019-03-23T00:12:10.619Z,4.50
2019-03-23T00:14:40.612Z,4.50
2019-03-23T00:17:12.183Z,4.50
2019-03-23T00:19:43.203Z,4.50
2019-03-23T00:22:21.238Z,4.50
2019-03-23T00:24:52.375Z,4.50
2019-03-23T00:27:22.553Z,4.50
2019-03-23T00:29:56.766Z,4.50
2019-03-23T00:32:32.152Z,4.40
2019-03-23T00:35:02.056Z,4.40
2019-03-23T00:37:33.454Z,4.40
2019-03-23T00:40:03.351Z,4.40
2019-03-23T00:42:33.257Z,4.30
2019-03-23T00:45:03.709Z,4.30
2019-03-23T00:47:38.189Z,4.20
2019-03-23T00:50:09.003Z,4.30
2019-03-23T00:52:41.484Z,4.30
2019-03-23T00:55:11.481Z,4.30
2019-03-23T00:57:41.417Z,4.30
2019-03-23T01:00:12.217Z,4.20
2019-03-23T01:02:43.738Z,4.20
2019-03-23T01:05:15.067Z,4.20
2019-03-23T01:07:45.987Z,4.20
2019-03-23T01:10:21.331Z,4.10
2019-03-23T01:12:51.228Z,4.20
2019-03-23T01:15:23.959Z,4.20
2019-03-23T01:17:53.873Z,4.20
2019-03-23T01:20:25.997Z,4.20
2019-03-23T01:22:57.095Z,4.30
2019-03-23T01:25:31.085Z,4.30
2019-03-23T01:28:01.128Z,4.20
2019-03-23T01:30:36.596Z,4.20
2019-03-23T01:33:06.628Z,4.20
2019-03-23T01:35:38.271Z,4.20
2019-03-23T01:38:09.912Z,4.20
2019-03-23T01:40:42.027Z,4.10
2019-03-23T01:43:11.929Z,4.10
2019-03-23T01:45:42.380Z,4.10
2019-03-23T01:48:15.193Z,4.10
2019-03-23T01:50:46.193Z,4.10
2019-03-23T01:53:19.635Z,4.00
2019-03-23T01:55:51.266Z,4.00
2019-03-23T01:58:22.040Z,4.00
2019-03-23T02:00:53.310Z,3.90
2019-03-23T02:03:23.217Z,3.90
2019-03-23T02:05:55.371Z,3.80
2019-03-23T02:08:26.021Z,3.90
2019-03-23T02:10:57.129Z,3.90
2019-03-23T02:13:27.029Z,3.80
2019-03-23T02:15:58.227Z,3.80
2019-03-23T02:18:29.740Z,3.80
2019-03-23T02:21:00.332Z,3.80
2019-03-23T02:23:31.262Z,3.80
2019-03-23T02:26:04.347Z,3.80
2019-03-23T02:28:34.869Z,3.80
2019-03-23T02:31:09.645Z,3.80
2019-03-23T02:33:43.746Z,3.70
2019-03-23T02:36:15.927Z,3.60
2019-03-23T02:38:46.471Z,3.60
2019-03-23T02:41:16.890Z,3.50
2019-03-23T02:43:50.292Z,3.50
2019-03-23T02:46:23.568Z,3.40
2019-03-23T02:48:56.871Z,3.40
2019-03-23T02:51:29.966Z,3.40
2019-03-23T02:54:00.552Z,3.40
2019-03-23T02:56:31.839Z,3.40
2019-03-23T02:59:02.498Z,3.40
2019-03-23T03:01:36.868Z,3.30
2019-03-23T03:04:08.938Z,3.30
2019-03-23T03:06:40.997Z,3.30
2019-03-23T03:09:12.032Z,3.30
2019-03-23T03:11:46.308Z,3.30
2019-03-23T03:14:21.681Z,3.30
2019-03-23T03:16:54.714Z,3.40
2019-03-23T03:19:29.276Z,3.40
2019-03-23T03:22:04.235Z,3.30
2019-03-23T03:24:38.471Z,3.20
2019-03-23T03:27:11.100Z,3.10
2019-03-23T03:29:42.336Z,3.00
2019-03-23T03:32:13.570Z,3.00
2019-03-23T03:34:45.561Z,2.90
2019-03-23T03:37:18.398Z,2.90
2019-03-23T03:39:48.446Z,2.80
2019-03-23T03:42:22.590Z,2.80
2019-03-23T03:44:53.969Z,2.80
2019-03-23T03:47:24.620Z,2.80
2019-03-23T03:49:57.717Z,2.80
2019-03-23T03:52:27.947Z,2.80
2019-03-23T03:54:59.523Z,2.90
2019-03-23T03:57:30.837Z,2.90
2019-03-23T04:00:03.482Z,3.00
2019-03-23T04:02:34.486Z,3.00
2019-03-23T04:05:05.007Z,3.00
2019-03-23T04:07:36.457Z,3.00
2019-03-23T04:10:12.120Z,3.00
2019-03-23T04:12:43.572Z,3.00
2019-03-23T04:15:14.274Z,2.90
2019-03-23T04:17:46.418Z,3.00
2019-03-23T04:20:19.125Z,2.90
2019-03-23T04:22:52.217Z,2.90
2019-03-23T04:25:23.448Z,2.90
2019-03-23T04:27:53.287Z,2.90
2019-03-23T04:30:23.196Z,2.80
2019-03-23T04:32:53.592Z,2.80
2019-03-23T04:35:23.489Z,2.80
2019-03-23T04:37:56.528Z,2.80
2019-03-23T04:40:26.404Z,2.70
2019-03-23T04:42:56.642Z,2.80
2019-03-23T04:45:26.638Z,2.70
2019-03-23T04:47:57.278Z,2.70
2019-03-23T04:50:27.168Z,2.70
2019-03-23T04:52:57.079Z,2.60
2019-03-23T04:55:27.056Z,2.60
2019-03-23T04:57:58.732Z,2.60
2019-03-23T05:00:28.660Z,2.60
2019-03-23T05:03:00.302Z,2.60
2019-03-23T05:05:30.178Z,2.60
2019-03-23T05:08:00.420Z,2.70
2019-03-23T05:10:32.961Z,2.70
2019-03-23T05:13:02.885Z,2.70
2019-03-23T05:15:32.847Z,2.60
2019-03-23T05:18:03.528Z,2.50
2019-03-23T05:20:36.232Z,2.60
2019-03-23T05:23:06.088Z,2.60
2019-03-23T05:25:36.593Z,2.60
2019-03-23T05:28:06.523Z,2.50
2019-03-23T05:30:38.363Z,2.50
2019-03-23T05:33:09.005Z,2.50
2019-03-23T05:35:40.160Z,2.50
2019-03-23T05:38:10.172Z,2.50
2019-03-23T05:40:42.341Z,2.60
2019-03-23T05:43:15.193Z,2.70
2019-03-23T05:45:47.310Z,2.70
2019-03-23T05:48:19.017Z,2.90
2019-03-23T05:50:49.650Z,2.90
2019-03-23T05:53:19.538Z,3.00
2019-03-23T05:55:50.191Z,3.00
2019-03-23T05:58:21.918Z,3.10
2019-03-23T06:00:53.297Z,3.10
2019-03-23T06:03:23.271Z,3.10
2019-03-23T06:05:54.057Z,3.30
2019-03-23T06:08:25.222Z,3.30
2019-03-23T06:10:55.130Z,3.50
2019-03-23T06:13:26.924Z,3.50
2019-03-23T06:15:57.775Z,3.60
2019-03-23T06:18:31.336Z,3.70
2019-03-23T06:21:01.592Z,3.80
2019-03-23T06:23:32.298Z,3.90
2019-03-23T06:26:06.361Z,3.90
2019-03-23T06:28:35.497Z,4.00
2019-03-23T06:31:05.941Z,4.00
2019-03-23T06:33:36.770Z,4.20
2019-03-23T06:36:09.934Z,4.20
2019-03-23T06:38:41.289Z,4.30
2019-03-23T06:41:15.232Z,4.40
2019-03-23T06:43:47.544Z,4.50
2019-03-23T06:46:18.796Z,4.50
2019-03-23T06:48:52.643Z,4.70
2019-03-23T06:51:22.812Z,4.80
2019-03-23T06:53:53.928Z,5.00
2019-03-23T06:56:24.622Z,5.10
2019-03-23T06:58:54.680Z,5.30
2019-03-23T07:01:26.221Z,5.50
2019-03-23T07:03:57.438Z,5.70
2019-03-23T07:06:27.328Z,5.80
2019-03-23T07:08:57.436Z,6.00
2019-03-23T07:11:27.900Z,6.20
2019-03-23T07:13:58.495Z,6.60
2019-03-23T07:16:28.360Z,7.60
2019-03-23T07:18:59.325Z,9.30
2019-03-23T07:21:29.183Z,11.40
2019-03-23T07:24:00.186Z,13.20
2019-03-23T07:26:30.072Z,14.60
2019-03-23T07:29:00.590Z,15.60
2019-03-23T07:31:31.331Z,16.40
2019-03-23T07:34:03.191Z,17.60
2019-03-23T07:36:34.923Z,18.60
2019-03-23T07:39:06.882Z,19.10
2019-03-23T07:41:40.559Z,19.50
2019-03-23T07:44:11.235Z,20.00
2019-03-23T07:46:41.211Z,20.30
2019-03-23T07:49:11.737Z,20.90
2019-03-23T07:51:41.856Z,22.30
2019-03-23T07:54:11.953Z,23.00
2019-03-23T07:56:42.343Z,23.30
2019-03-23T07:59:12.255Z,23.70
2019-03-23T08:01:47.689Z,24.10
2019-03-23T08:04:19.626Z,25.10
2019-03-23T08:06:50.188Z,26.10
2019-03-23T08:11:52.975Z,27.60
2019-03-23T08:14:25.774Z,28.20
2019-03-23T08:16:58.770Z,27.40
2019-03-23T08:19:29.636Z,28.20
2019-03-23T08:21:59.525Z,28.30
2019-03-23T08:24:31.389Z,28.10
2019-03-23T08:27:01.437Z,27.00
2019-03-23T08:29:31.381Z,27.30
2019-03-23T08:32:02.009Z,27.90
2019-03-23T08:34:34.971Z,28.60
2019-03-23T08:37:04.573Z,29.60
2019-03-23T08:39:34.468Z,29.60
2019-03-23T08:42:05.870Z,28.20
2019-03-23T08:44:36.463Z,27.70
2019-03-23T08:47:06.277Z,28.60
2019-03-23T08:49:36.798Z,29.40
2019-03-23T08:52:06.708Z,28.90
2019-03-23T08:54:38.438Z,29.70
2019-03-23T08:57:09.180Z,29.20
2019-03-23T08:59:40.576Z,30.20
2019-03-23T09:02:13.020Z,31.20
2019-03-23T09:04:43.307Z,31.00
2019-03-23T09:07:13.220Z,32.20
2019-03-23T09:09:43.427Z,33.10
2019-03-23T09:12:13.699Z,33.00
2019-03-23T09:14:43.808Z,33.60
2019-03-23T09:17:13.721Z,34.50
2019-03-23T09:19:43.660Z,35.20
2019-03-23T09:22:13.581Z,35.40
2019-03-23T09:24:43.489Z,36.00
2019-03-23T09:27:17.951Z,35.80
2019-03-23T09:29:49.535Z,35.60
2019-03-23T09:32:20.700Z,35.30
2019-03-23T09:34:51.930Z,34.40
2019-03-23T09:37:23.053Z,34.60
2019-03-23T09:39:53.504Z,35.10
2019-03-23T09:42:24.289Z,35.70
2019-03-23T09:44:54.928Z,35.70
2019-03-23T09:47:25.599Z,35.30
2019-03-23T09:49:56.416Z,34.60
2019-03-23T09:52:27.032Z,35.20
2019-03-23T09:54:57.621Z,34.60
2019-03-23T09:57:28.000Z,34.60
2019-03-23T09:59:58.364Z,34.30
2019-03-23T10:02:28.580Z,33.90
2019-03-23T10:04:58.525Z,32.50
2019-03-23T10:07:29.529Z,32.30
2019-03-23T10:09:59.445Z,32.70
2019-03-23T10:12:31.355Z,33.20
2019-03-23T10:15:01.299Z,33.30
2019-03-23T10:17:31.225Z,32.30
2019-03-23T10:20:01.179Z,31.10
2019-03-23T10:22:35.596Z,29.80
2019-03-23T10:25:06.579Z,29.10
2019-03-23T10:27:37.746Z,27.30
2019-03-23T10:30:07.760Z,26.00
2019-03-23T10:32:37.681Z,24.90
2019-03-23T10:35:08.508Z,24.20
2019-03-23T10:37:38.576Z,23.50
2019-03-23T10:40:08.917Z,22.50
2019-03-23T10:42:43.490Z,22.10
2019-03-23T10:45:13.741Z,21.70
2019-03-23T10:47:43.727Z,21.10
2019-03-23T10:50:13.723Z,20.70
2019-03-23T10:52:44.940Z,20.60
2019-03-23T10:55:19.280Z,20.20
2019-03-23T10:57:49.829Z,20.00
2019-03-23T11:00:20.375Z,19.80
2019-03-23T11:02:50.266Z,19.60
2019-03-23T11:05:23.617Z,19.50
2019-03-23T11:07:53.509Z,19.40
2019-03-23T11:10:23.792Z,19.50
2019-03-23T11:12:54.427Z,19.50
2019-03-23T11:15:24.384Z,19.50
2019-03-23T11:17:55.262Z,19.30
2019-03-23T11:20:25.160Z,19.40
2019-03-23T11:22:55.075Z,19.40
2019-03-23T11:25:25.261Z,19.50
2019-03-23T11:27:55.599Z,19.30
2019-03-23T11:30:25.984Z,19.20
2019-03-23T11:32:58.534Z,19.30
2019-03-23T11:35:28.989Z,19.20
2019-03-23T11:38:02.548Z,19.10
2019-03-23T11:40:32.577Z,19.10
2019-03-23T11:43:02.815Z,19.00
2019-03-23T11:45:32.736Z,18.80
2019-03-23T11:48:02.666Z,18.60
2019-03-23T11:50:35.536Z,18.40
2019-03-23T11:53:05.434Z,18.40
2019-03-23T11:55:35.493Z,18.50
2019-03-23T11:58:06.928Z,18.50
2019-03-23T12:00:39.589Z,18.60
2019-03-23T12:03:10.575Z,18.60
2019-03-23T12:05:41.449Z,18.60
2019-03-23T12:08:12.563Z,18.70
2019-03-23T12:10:44.194Z,18.70
2019-03-23T12:13:15.769Z,18.70
2019-03-23T12:15:46.822Z,18.80
2019-03-23T12:18:20.740Z,18.70
2019-03-23T12:20:52.106Z,18.90
2019-03-23T12:23:23.226Z,19.00
2019-03-23T12:25:54.362Z,19.00
2019-03-23T12:28:25.964Z,19.00
2019-03-23T12:30:55.842Z,19.00
2019-03-23T12:33:25.751Z,19.00
2019-03-23T12:35:55.703Z,19.10
2019-03-23T12:38:25.675Z,19.20
2019-03-23T12:40:55.593Z,19.20
2019-03-23T12:43:26.479Z,19.30
2019-03-23T12:45:56.379Z,19.40
2019-03-23T12:48:26.321Z,19.50
2019-03-23T12:50:56.264Z,19.40
2019-03-23T12:53:26.229Z,19.20
2019-03-23T12:55:56.212Z,19.00
2019-03-23T12:58:26.297Z,18.90
2019-03-23T13:00:57.967Z,18.80
2019-03-23T13:03:29.982Z,18.70
2019-03-23T13:06:01.464Z,18.70
2019-03-23T13:08:34.485Z,18.80
2019-03-23T13:11:04.506Z,18.80
2019-03-23T13:13:34.809Z,18.80
2019-03-23T13:16:05.397Z,18.80
2019-03-23T13:18:35.951Z,18.90
2019-03-23T13:21:06.057Z,18.90
2019-03-23T13:23:36.983Z,19.10
2019-03-23T13:26:06.822Z,19.10
2019-03-23T13:28:39.040Z,19.10
2019-03-23T13:31:10.044Z,19.00
2019-03-23T13:33:40.082Z,19.10
2019-03-23T13:36:11.545Z,19.00
2019-03-23T13:38:41.907Z,19.00
2019-03-23T13:41:13.062Z,19.00
2019-03-23T13:43:45.908Z,19.10
2019-03-23T13:46:17.991Z,19.10
2019-03-23T13:48:47.880Z,19.20
2019-03-23T13:51:19.402Z,19.10
2019-03-23T13:53:49.308Z,19.00
2019-03-23T13:56:19.221Z,19.00
2019-03-23T13:58:49.152Z,19.00
2019-03-23T14:01:19.056Z,19.10
2019-03-23T14:03:48.966Z,19.10
2019-03-23T14:06:19.309Z,19.10
2019-03-23T14:08:49.708Z,19.00
2019-03-23T14:11:19.632Z,19.00
2019-03-23T14:13:49.909Z,19.10
2019-03-23T14:16:20.144Z,19.20
2019-03-23T14:18:50.274Z,19.10
2019-03-23T14:21:20.349Z,19.10
2019-03-23T14:23:52.087Z,18.90
2019-03-23T14:26:24.490Z,18.90
2019-03-23T14:28:56.152Z,19.00
2019-03-23T14:31:27.004Z,19.10
2019-03-23T14:33:59.336Z,19.10
2019-03-23T14:36:33.681Z,19.10
2019-03-23T14:39:04.753Z,19.20
2019-03-23T14:41:34.657Z,19.30
2019-03-23T14:44:04.827Z,19.20
2019-03-23T14:46:34.732Z,19.20
2019-03-23T14:49:09.873Z,19.20
2019-03-23T14:51:40.064Z,19.20
2019-03-23T14:54:09.937Z,19.20
2019-03-23T14:56:40.092Z,19.20
2019-03-23T14:59:10.356Z,19.30
2019-03-23T15:01:40.784Z,19.30
2019-03-23T15:04:11.117Z,19.30
2019-03-23T15:06:41.583Z,19.30
2019-03-23T15:09:11.421Z,19.00
2019-03-23T15:11:41.408Z,18.90
2019-03-23T15:14:13.518Z,18.90
2019-03-23T15:16:43.439Z,19.00
2019-03-23T15:19:15.482Z,18.90
2019-03-23T15:21:45.309Z,18.90
2019-03-23T15:24:16.813Z,18.90
2019-03-23T15:26:46.714Z,19.00
2019-03-23T15:29:17.205Z,19.00
2019-03-23T15:31:47.118Z,19.00
2019-03-23T15:34:18.537Z,19.00
2019-03-23T15:36:52.331Z,19.00
2019-03-23T15:39:22.436Z,18.90
2019-03-23T15:41:55.988Z,19.00
2019-03-23T15:44:26.445Z,18.90
2019-03-23T15:46:56.439Z,18.80
2019-03-23T15:49:26.649Z,18.80
2019-03-23T15:51:56.764Z,18.70
2019-03-23T15:54:31.627Z,18.70
2019-03-23T15:57:01.874Z,18.60
2019-03-23T15:59:32.898Z,18.50
2019-03-23T16:02:03.105Z,18.40
2019-03-23T16:04:34.109Z,18.30
2019-03-23T16:07:04.086Z,18.40
2019-03-23T16:09:35.817Z,18.30
2019-03-23T16:12:05.774Z,18.30
2019-03-23T16:14:35.983Z,18.30
2019-03-23T16:17:07.800Z,18.20
2019-03-23T16:19:38.565Z,18.20
2019-03-23T16:22:09.017Z,18.10
2019-03-23T16:24:39.909Z,18.10
2019-03-23T16:27:10.549Z,18.00
2019-03-23T16:29:41.315Z,18.00
2019-03-23T16:32:15.191Z,17.90
2019-03-23T16:34:45.622Z,17.80
2019-03-23T16:37:15.800Z,17.70
2019-03-23T16:39:46.384Z,17.70
2019-03-23T16:42:18.215Z,17.60
2019-03-23T16:44:48.446Z,17.50
2019-03-23T16:47:18.590Z,17.40
2019-03-23T16:49:49.514Z,17.40
2019-03-23T16:52:19.606Z,17.30
2019-03-23T16:54:49.480Z,17.10
2019-03-23T16:57:19.675Z,17.00
2019-03-23T16:59:49.650Z,16.90
2019-03-23T17:02:20.454Z,16.90
2019-03-23T17:04:50.714Z,16.80
2019-03-23T17:07:24.305Z,16.60
2019-03-23T17:09:54.229Z,16.50
2019-03-23T17:12:24.195Z,16.40
2019-03-23T17:14:54.119Z,16.30
2019-03-23T17:17:24.118Z,16.10
2019-03-23T17:19:57.462Z,16.10
2019-03-23T17:22:30.536Z,15.90
2019-03-23T17:25:00.457Z,15.80
2019-03-23T17:27:30.488Z,15.70
2019-03-23T17:30:00.596Z,15.60
2019-03-23T17:32:30.514Z,15.40
2019-03-23T17:35:00.531Z,15.30
2019-03-23T17:37:30.860Z,15.20
2019-03-23T17:40:00.756Z,15.00
2019-03-23T17:42:30.684Z,14.90
2019-03-23T17:45:00.603Z,14.80
2019-03-23T17:47:30.516Z,14.80
2019-03-23T17:50:00.487Z,14.70
2019-03-23T17:52:30.636Z,14.50
2019-03-23T17:55:02.677Z,14.40
2019-03-23T17:57:33.289Z,14.30
2019-03-23T18:00:03.257Z,14.30
2019-03-23T18:02:33.365Z,14.20
2019-03-23T18:05:03.312Z,14.10
2019-03-23T18:07:33.302Z,14.00
2019-03-23T18:10:05.797Z,13.90
2019-03-23T18:12:36.667Z,13.80
2019-03-23T18:15:09.405Z,13.70
2019-03-23T18:17:39.449Z,13.60
2019-03-23T18:20:09.995Z,13.60
2019-03-23T18:22:39.935Z,13.60
2019-03-23T18:25:10.577Z,13.50
2019-03-23T18:27:42.178Z,13.40
2019-03-23T18:30:44.417Z,13.30
2019-03-23T18:33:14.621Z,13.30
2019-03-23T18:35:44.844Z,13.10
2019-03-23T18:38:16.696Z,13.10
2019-03-23T18:40:46.692Z,13.00
2019-03-23T18:43:27.050Z,12.90
2019-03-23T18:45:48.697Z,12.90
2019-03-23T18:48:19.816Z,12.80
2019-03-23T18:50:50.096Z,12.80
2019-03-23T18:53:20.305Z,12.70
2019-03-23T18:55:50.240Z,12.60
2019-03-23T18:58:20.284Z,12.60
2019-03-23T19:00:50.391Z,12.40
2019-03-23T19:03:20.787Z,12.40
2019-03-23T19:05:51.194Z,12.40
2019-03-23T19:08:21.133Z,12.30
2019-03-23T19:10:51.544Z,12.20
2019-03-23T19:13:21.451Z,12.10
2019-03-23T19:15:51.360Z,12.10
2019-03-23T19:18:21.308Z,12.00
2019-03-23T19:20:51.700Z,12.00
2019-03-23T19:23:22.289Z,11.90
2019-03-23T19:25:52.905Z,11.90
2019-03-23T19:28:22.787Z,11.80
2019-03-23T19:30:52.942Z,11.70
2019-03-23T19:33:24.296Z,11.60
2019-03-23T19:35:54.542Z,11.60
2019-03-23T19:38:24.813Z,11.50
2019-03-23T19:40:55.828Z,11.50
2019-03-23T19:43:25.761Z,11.40
2019-03-23T19:45:56.715Z,11.40
2019-03-23T19:48:26.700Z,11.20
2019-03-23T19:50:56.686Z,11.10
2019-03-23T19:53:26.725Z,11.00
2019-03-23T19:55:58.393Z,10.90
2019-03-23T19:58:28.295Z,10.80
2019-03-23T20:01:01.545Z,10.70
2019-03-23T20:03:32.206Z,10.60
2019-03-23T20:06:02.211Z,10.60
2019-03-23T20:08:32.086Z,10.50
2019-03-23T20:11:22.720Z,10.50
2019-03-23T20:13:58.730Z,10.50
2019-03-23T20:16:25.075Z,10.40
2019-03-23T20:18:54.946Z,10.40
2019-03-23T20:21:25.071Z,10.30
2019-03-23T20:23:55.297Z,10.30
2019-03-23T20:26:25.627Z,10.30
2019-03-23T20:28:55.571Z,10.20
2019-03-23T20:31:25.576Z,10.10
2019-03-23T20:33:55.597Z,10.00
2019-03-23T20:36:28.209Z,9.90
2019-03-23T20:39:00.405Z,9.90
2019-03-23T20:41:32.554Z,9.80
2019-03-23T20:44:09.492Z,9.80
2019-03-23T20:46:33.975Z,9.80
2019-03-23T20:49:04.163Z,9.70
2019-03-23T20:51:34.713Z,9.70
2019-03-23T20:54:04.866Z,9.60
2019-03-23T20:56:34.889Z,9.60
2019-03-23T20:59:04.795Z,9.60
2019-03-23T21:01:34.747Z,9.50
2019-03-23T21:04:04.725Z,9.50
2019-03-23T21:06:34.629Z,9.40
2019-03-23T21:09:08.870Z,9.40
2019-03-23T21:11:39.245Z,9.30
2019-03-23T21:14:19.640Z,9.30
2019-03-23T21:16:40.779Z,9.20
2019-03-23T21:19:10.814Z,9.10
2019-03-23T21:21:44.189Z,9.00
2019-03-23T21:24:16.065Z,9.00
2019-03-23T21:26:48.406Z,9.00
2019-03-23T21:29:20.107Z,9.00
2019-03-23T21:31:50.532Z,9.00
2019-03-23T21:34:20.736Z,9.00
2019-03-23T21:36:50.836Z,8.90
2019-03-23T21:39:21.246Z,8.80
2019-03-23T21:41:53.803Z,8.80
2019-03-23T21:44:30.848Z,8.70
2019-03-23T21:46:56.992Z,8.70
2019-03-23T21:49:27.869Z,8.70
2019-03-23T21:51:57.756Z,8.60
2019-03-23T21:54:27.969Z,8.60
2019-03-23T21:56:58.598Z,8.50
2019-03-23T21:59:28.545Z,8.50
2019-03-23T22:01:58.469Z,8.40
2019-03-23T22:04:28.413Z,8.40
2019-03-23T22:06:58.327Z,8.40
2019-03-23T22:09:28.344Z,8.40
2019-03-23T22:11:58.320Z,8.30
2019-03-23T22:14:28.232Z,8.30
2019-03-23T22:16:58.173Z,8.30
2019-03-23T22:19:29.954Z,8.30
2019-03-23T22:22:01.159Z,8.20
2019-03-23T22:24:31.000Z,8.20
2019-03-23T22:27:01.177Z,8.10
2019-03-23T22:29:31.144Z,8.10
2019-03-23T22:32:01.089Z,8.10
2019-03-23T22:34:32.159Z,8.10
2019-03-23T22:37:02.236Z,8.00
2019-03-23T22:39:32.234Z,7.90
2019-03-23T22:42:02.191Z,7.80
2019-03-23T22:44:32.584Z,7.80
2019-03-23T22:47:02.511Z,7.70
2019-03-23T22:49:33.363Z,7.70
2019-03-23T22:52:03.277Z,7.70
2019-03-23T22:54:37.565Z,7.70
2019-03-23T22:57:07.509Z,7.80
2019-03-23T22:59:37.424Z,7.70
2019-03-23T23:02:07.373Z,7.70
2019-03-23T23:04:37.534Z,7.60
2019-03-23T23:07:13.265Z,7.60
2019-03-23T23:09:43.432Z,7.60
2019-03-23T23:12:17.075Z,7.60
2019-03-23T23:14:47.561Z,7.50
2019-03-23T23:17:18.666Z,7.50
2019-03-23T23:19:49.627Z,7.40
2019-03-23T23:22:20.170Z,7.40
2019-03-23T23:24:50.108Z,7.30
2019-03-23T23:27:23.541Z,7.30
2019-03-23T23:29:53.404Z,7.20
2019-03-23T23:32:23.317Z,7.20
2019-03-23T23:34:54.352Z,7.10
2019-03-23T23:37:24.564Z,7.00
2019-03-23T23:39:54.496Z,7.00
2019-03-23T23:42:24.444Z,7.00
2019-03-23T23:44:54.763Z,6.90
2019-03-23T23:47:25.029Z,6.90
2019-03-23T23:49:55.476Z,6.90
2019-03-23T23:52:26.596Z,6.80
2019-03-23T23:54:57.911Z,6.80
2019-03-23T23:57:28.211Z,6.80
2019-03-23T23:59:58.116Z,6.80
